Time;durP1;ratioP1;P1;durP2;ratioP2;P2;SDS_P1;SDS_P2;PMS_P1;PMS_P2;Temp;Humidity;BMP_temperature;BMP_pressure;BME280_temperature;BME280_humidity;BME280_pressure;Samples;Min_cycle;Max_cycle;Signal;HPM_P1;HPM_P2
2022/04/22 00:00:00;;;;;;;;;;;;;;;17.25;56.53;101264.09;143734;984;47002;-74
2022/04/22 00:02:26;;;;;;;;;;;;;;;17.23;56.58;101245.31;143727;983;48004;-75
2022/04/22 00:04:52;;;;;;;;;;;;;;;17.26;56.37;101244.84;143733;979;47004;-75
2022/04/22 00:07:17;;;;;;;;;;;;;;;17.27;56.18;101249.22;143733;986;46010;-75
2022/04/22 00:09:43;;;;;;;;;;;;;;;17.27;56.19;101251.94;143732;984;47002;-75
2022/04/22 00:12:10;;;;;;;;;;;;;;;17.22;56.58;101249.09;143733;984;47012;-74
2022/04/22 00:14:36;;;;;;;;;;;;;;;17.27;56.42;101242.97;143733;980;46014;-75
2022/04/22 00:17:02;;;;;;;;;;;;;;;17.26;56.60;101257.63;143733;986;46011;-75
2022/04/22 00:19:28;;;;;;;;;;;;;;;17.27;56.61;101283.72;143735;984;47002;-76
2022/04/22 00:21:54;;;;;;;;;;;;;;;17.24;56.32;101281.44;143732;984;47012;-75
2022/04/22 00:24:20;;;;;;;;;;;;;;;17.24;55.94;101284.16;143732;980;47004;-75
2022/04/22 00:26:46;;;;;;;;;;;;;;;17.22;56.14;101306.09;143733;985;46933;-75
2022/04/22 00:29:12;;;;;;;;;;;;;;;17.22;55.84;101311.50;143734;984;47002;-77
2022/04/22 00:31:38;;;;;;;;;;;;;;;17.12;55.97;101303.91;143733;984;47013;-76
2022/04/22 00:34:04;;;;;;;;;;;;;;;17.04;56.30;101290.66;143731;979;47004;-76
2022/04/22 00:36:30;;;;;;;;;;;;;;;17.02;56.57;101287.34;143733;986;46010;-76
2022/04/22 00:38:56;;;;;;;;;;;;;;;17.03;56.89;101297.16;143734;984;47002;-76
2022/04/22 00:41:22;;;;;;;;;;;;;;;17.07;56.56;101292.94;143732;981;47012;-76
2022/04/22 00:43:50;;;;;;;;;;;;;;;17.08;56.54;101283.75;143729;980;47004;-76
2022/04/22 00:46:16;;;;;;;;;;;;;;;17.15;56.69;101278.22;143731;986;46011;-76
2022/04/22 00:48:42;;;;;;;;;;;;;;;17.12;56.59;101276.78;143733;984;47002;-76
2022/04/22 00:51:09;;;;;;;;;;;;;;;17.15;56.59;101261.94;143732;984;47012;-75
2022/04/22 00:53:35;;;;;;;;;;;;;;;17.19;56.82;101259.59;143732;980;47006;-78
2022/04/22 00:56:02;;;;;;;;;;;;;;;17.18;56.61;101260.63;143735;985;46010;-77
2022/04/22 00:58:28;;;;;;;;;;;;;;;17.23;56.85;101258.06;143732;984;47002;-77
2022/04/22 01:00:54;;;;;;;;;;;;;;;17.26;56.48;101255.72;143731;968;47004;-77
2022/04/22 01:03:20;;;;;;;;;;;;;;;17.24;56.65;101257.81;143731;979;47004;-77
2022/04/22 01:11:31;;;;;;;;;;;;;;;17.18;56.92;101293.22;143730;984;47006;-76
2022/04/22 01:13:57;;;;;;;;;;;;;;;17.25;57.03;101283.09;143731;980;47002;-77
2022/04/22 01:16:23;;;;;;;;;;;;;;;17.31;56.93;101268.59;143733;985;46009;-78
2022/04/22 01:18:49;;;;;;;;;;;;;;;17.34;56.90;101264.59;143733;984;47000;-78
2022/04/22 01:21:15;;;;;;;;;;;;;;;17.31;56.70;101260.44;143730;984;47010;-78
2022/04/22 01:23:41;;;;;;;;;;;;;;;17.25;57.03;101264.91;143732;980;47002;-78
2022/04/22 01:26:07;;;;;;;;;;;;;;;17.24;56.31;101274.13;143731;985;47000;-76
2022/04/22 01:28:33;;;;;;;;;;;;;;;17.23;56.63;101271.66;143731;984;47000;-75
2022/04/22 01:31:00;;;;;;;;;;;;;;;17.19;56.16;101265.00;143731;979;46021;-74
2022/04/22 01:33:26;;;;;;;;;;;;;;;17.18;56.54;101271.50;143730;979;47002;-75
2022/04/22 01:35:52;;;;;;;;;;;;;;;17.11;56.50;101275.16;143733;985;47008;-73
2022/04/22 01:38:18;;;;;;;;;;;;;;;17.16;57.35;101238.31;143734;984;47000;-76
2022/04/22 01:40:44;;;;;;;;;;;;;;;17.10;57.81;101273.50;143732;984;47010;-75
2022/04/22 01:43:10;;;;;;;;;;;;;;;17.09;57.29;101279.12;143731;980;47002;-78
2022/04/22 01:45:36;;;;;;;;;;;;;;;17.11;57.68;101275.16;143732;981;47009;-77
2022/04/22 01:48:02;;;;;;;;;;;;;;;17.16;57.81;101263.59;143733;983;47000;-76
2022/04/22 01:50:28;;;;;;;;;;;;;;;17.16;57.57;101249.19;143732;984;46933;-76
2022/04/22 01:52:53;;;;;;;;;;;;;;;17.15;58.00;101245.66;143732;980;47003;-77
2022/04/22 01:55:19;;;;;;;;;;;;;;;17.15;58.08;101226.66;143731;985;47008;-77
2022/04/22 01:57:46;;;;;;;;;;;;;;;17.14;57.58;101222.28;143734;984;47000;-78
2022/04/22 02:00:12;;;;;;;;;;;;;;;17.16;57.90;101211.19;143732;980;47011;-76
2022/04/22 02:02:38;;;;;;;;;;;;;;;17.12;58.00;101194.53;143731;979;47004;-76
2022/04/22 02:05:05;;;;;;;;;;;;;;;17.15;58.01;101169.66;143733;979;46010;-74
2022/04/22 02:07:32;;;;;;;;;;;;;;;17.11;57.68;101144.03;143730;984;47002;-75
2022/04/22 02:09:58;;;;;;;;;;;;;;;17.14;58.02;101159.84;143730;974;47012;-75
2022/04/22 02:12:23;;;;;;;;;;;;;;;17.16;57.74;101195.75;143733;980;47004;-75
2022/04/22 02:14:49;;;;;;;;;;;;;;;17.15;57.99;101212.22;143731;986;47010;-74
2022/04/22 02:17:15;;;;;;;;;;;;;;;17.16;57.53;101219.31;143732;983;47002;-75
2022/04/22 02:19:41;;;;;;;;;;;;;;;17.15;57.42;101212.22;143732;984;47012;-75
2022/04/22 02:22:07;;;;;;;;;;;;;;;17.17;57.83;101210.13;143731;980;47004;-76
2022/04/22 02:24:33;;;;;;;;;;;;;;;17.21;57.21;101203.19;143733;985;46010;-74
2022/04/22 02:29:43;;;;;;;;;;;;;;;17.19;57.98;101206.13;143732;984;47004;-75
2022/04/22 02:32:09;;;;;;;;;;;;;;;17.19;57.78;101211.56;143734;985;46012;-76
2022/04/22 02:34:35;;;;;;;;;;;;;;;17.19;57.74;101208.00;143733;985;46010;-76
2022/04/22 02:37:01;;;;;;;;;;;;;;;17.22;57.77;101191.25;143732;984;47002;-75
2022/04/22 02:39:26;;;;;;;;;;;;;;;17.19;57.85;101179.00;143729;983;48012;-75
2022/04/22 02:47:20;;;;;;;;;;;;;;;17.27;57.66;101169.69;143731;983;47004;-75
2022/04/22 02:49:46;;;;;;;;;;;;;;;17.33;57.47;101162.50;143732;976;47012;-75
2022/04/22 02:52:12;;;;;;;;;;;;;;;17.33;57.54;101152.44;143733;980;47005;-74
2022/04/22 02:54:38;;;;;;;;;;;;;;;17.37;57.75;101150.12;143732;985;46010;-75
2022/04/22 02:57:05;;;;;;;;;;;;;;;17.40;57.92;101150.47;143734;985;46010;-75
2022/04/22 02:59:31;;;;;;;;;;;;;;;17.40;57.47;101144.19;143732;984;47004;-75
2022/04/22 03:01:57;;;;;;;;;;;;;;;17.38;57.74;101158.00;143732;979;47004;-75
2022/04/22 03:04:23;;;;;;;;;;;;;;;17.35;58.01;101172.06;143731;985;47010;-75
2022/04/22 03:06:49;;;;;;;;;;;;;;;17.37;58.11;101153.66;143732;984;47002;-75
2022/04/22 03:09:15;;;;;;;;;;;;;;;17.35;58.06;101136.75;143734;983;46012;-75
2022/04/22 03:11:41;;;;;;;;;;;;;;;17.37;58.03;101126.50;143731;980;47004;-76
2022/04/22 03:14:06;;;;;;;;;;;;;;;17.37;57.68;101126.50;143733;986;46010;-76
2022/04/22 03:16:33;;;;;;;;;;;;;;;17.30;58.20;101155.63;143731;974;47002;-75
2022/04/22 03:18:59;;;;;;;;;;;;;;;17.17;58.62;101178.41;143733;984;47012;-75
2022/04/22 03:21:25;;;;;;;;;;;;;;;17.13;58.61;101185.34;143732;980;47004;-75
2022/04/22 03:23:52;;;;;;;;;;;;;;;17.11;58.60;101192.87;143734;975;46025;-75
2022/04/22 03:26:18;;;;;;;;;;;;;;;17.12;58.56;101187.22;143734;984;47002;-75
2022/04/22 03:28:44;;;;;;;;;;;;;;;17.10;58.58;101216.50;143733;971;46029;-75
2022/04/22 03:31:10;;;;;;;;;;;;;;;17.07;58.42;101237.81;143731;980;47004;-74
2022/04/22 03:33:36;;;;;;;;;;;;;;;17.05;58.73;101242.63;143731;986;47010;-76
2022/04/22 03:36:02;;;;;;;;;;;;;;;17.09;58.16;101255.53;143734;984;47009;-75
2022/04/22 03:38:28;;;;;;;;;;;;;;;17.13;58.27;101258.62;143733;984;46933;-77
2022/04/22 03:40:54;;;;;;;;;;;;;;;17.15;57.95;101247.53;143732;980;47004;-76
2022/04/22 03:43:21;;;;;;;;;;;;;;;17.15;58.20;101253.78;143732;986;47010;-76
2022/04/22 03:45:46;;;;;;;;;;;;;;;17.10;58.23;101251.78;143734;984;47002;-75
2022/04/22 03:48:15;;;;;;;;;;;;;;;17.13;58.29;101239.63;143733;984;46012;-75
2022/04/22 03:50:41;;;;;;;;;;;;;;;17.17;58.26;101246.25;143730;980;47004;-77
2022/04/22 03:53:11;;;;;;;;;;;;;;;17.20;58.33;101253.09;143731;985;46011;-77
2022/04/22 03:55:38;;;;;;;;;;;;;;;17.21;57.71;101261.00;143733;984;47002;-77
2022/04/22 03:58:13;;;;;;;;;;;;;;;17.24;57.81;101248.88;143732;984;47012;-75
2022/04/22 04:00:51;;;;;;;;;;;;;;;17.26;57.70;101239.44;143732;979;47005;-75
2022/04/22 04:03:18;;;;;;;;;;;;;;;17.27;58.29;101227.50;143733;968;46032;-74
2022/04/22 04:05:49;;;;;;;;;;;;;;;17.30;57.82;101242.50;143731;984;47002;-74
2022/04/22 04:08:16;;;;;;;;;;;;;;;17.31;57.83;101224.34;143732;976;46934;-73
2022/04/22 04:16:09;;;;;;;;;;;;;;;17.36;57.94;101168.28;143734;983;47004;-74
2022/04/22 04:18:37;;;;;;;;;;;;;;;17.38;58.02;101166.16;143731;984;47012;-74
2022/04/22 04:23:49;;;;;;;;;;;;;;;17.38;57.78;101144.44;143731;985;46010;-74
2022/04/22 04:26:15;;;;;;;;;;;;;;;17.38;58.25;101136.28;143734;984;47002;-75
2022/04/22 04:28:42;;;;;;;;;;;;;;;17.39;58.73;101127.09;143731;984;47012;-74
2022/04/22 04:31:08;;;;;;;;;;;;;;;17.38;58.09;101130.88;143731;979;47004;-75
2022/04/22 04:33:34;;;;;;;;;;;;;;;17.28;58.72;101125.19;143732;985;46010;-75
2022/04/22 04:36:00;;;;;;;;;;;;;;;17.30;58.98;101127.66;143732;984;47002;-74
2022/04/22 04:38:27;;;;;;;;;;;;;;;17.36;58.43;101124.84;143732;974;46013;-74
2022/04/22 04:40:53;;;;;;;;;;;;;;;17.37;58.59;101106.69;143732;980;47004;-75
2022/04/22 04:43:20;;;;;;;;;;;;;;;17.41;58.78;101115.97;143733;986;47010;-75
2022/04/22 04:45:46;;;;;;;;;;;;;;;17.42;59.11;101104.91;143733;968;47002;-75
2022/04/22 04:48:12;;;;;;;;;;;;;;;17.45;58.91;101113.66;143732;984;47012;-74
2022/04/22 04:50:38;;;;;;;;;;;;;;;17.48;58.61;101113.16;143729;980;47005;-74
2022/04/22 04:53:04;;;;;;;;;;;;;;;17.50;58.24;101111.87;143731;985;47011;-75
2022/04/22 04:55:30;;;;;;;;;;;;;;;17.53;58.49;101114.13;143729;984;47002;-75
2022/04/22 04:57:56;;;;;;;;;;;;;;;17.54;58.12;101115.78;143731;984;47012;-74
2022/04/22 05:00:22;;;;;;;;;;;;;;;17.55;58.34;101128.28;143730;979;47004;-75
2022/04/22 05:02:48;;;;;;;;;;;;;;;17.59;58.45;101134.06;143733;984;46010;-75
2022/04/22 05:05:14;;;;;;;;;;;;;;;17.62;58.64;101149.06;143734;984;47002;-75
2022/04/22 05:07:59;;;;;;;;;;;;;;;17.66;57.68;101161.12;143732;970;47013;-76
2022/04/22 05:10:29;;;;;;;;;;;;;;;17.71;58.23;101166.69;143733;980;47004;-73
2022/04/22 05:12:55;;;;;;;;;;;;;;;17.75;58.13;101196.91;143733;986;46010;-75
2022/04/22 05:15:22;;;;;;;;;;;;;;;17.79;57.87;101198.09;143733;983;47002;-75
2022/04/22 05:17:49;;;;;;;;;;;;;;;17.80;57.98;101197.03;143734;967;46933;-74
2022/04/22 05:20:16;;;;;;;;;;;;;;;17.82;57.81;101203.06;143731;980;47004;-75
2022/04/22 05:22:42;;;;;;;;;;;;;;;17.83;57.57;101201.97;143732;985;47002;-75
2022/04/22 05:25:10;;;;;;;;;;;;;;;17.88;57.47;101218.41;143734;984;47002;-75
2022/04/22 05:27:36;;;;;;;;;;;;;;;17.88;58.27;101229.28;143731;984;47012;-74
2022/04/22 05:32:49;;;;;;;;;;;;;;;17.90;58.68;101227.16;143733;986;47002;-75
2022/04/22 05:35:16;;;;;;;;;;;;;;;17.92;58.63;101226.91;143732;984;47002;-75
2022/04/22 05:37:51;;;;;;;;;;;;;;;17.92;58.33;101226.91;143731;984;47012;-75
2022/04/22 05:40:19;;;;;;;;;;;;;;;17.99;57.84;101205.94;143732;980;47004;-76
2022/04/22 05:42:45;;;;;;;;;;;;;;;18.03;57.60;101190.81;143733;986;46010;-76
2022/04/22 05:45:12;;;;;;;;;;;;;;;18.09;57.37;101178.16;143733;984;47002;-75
2022/04/22 05:47:38;;;;;;;;;;;;;;;18.11;57.42;101171.41;143732;984;46012;-77
2022/04/22 05:50:05;;;;;;;;;;;;;;;18.19;57.16;101164.78;143730;980;47004;-73
2022/04/22 05:52:34;;;;;;;;;;;;;;;18.28;56.67;101167.97;143733;986;47011;-75
2022/04/22 05:55:02;;;;;;;;;;;;;;;18.33;56.60;101151.75;143733;984;47002;-75
2022/04/22 05:57:31;;;;;;;;;;;;;;;18.41;56.30;101134.25;143735;969;46004;-75
2022/04/22 05:59:57;;;;;;;;;;;;;;;18.43;56.73;101124.78;143686;557;47445;-76
2022/04/22 06:02:24;;;;;;;;;;;;;;;18.48;56.26;101129.50;143731;982;47010;-76
2022/04/22 06:04:50;;;;;;;;;;;;;;;18.49;56.69;101144.75;143728;971;47002;-73
2022/04/22 06:07:15;;;;;;;;;;;;;;;18.52;56.15;101151.59;143723;977;47013;-77
2022/04/22 06:12:25;;;;;;;;;;;;;;;18.57;56.08;101177.00;143725;983;48002;-73
2022/04/22 06:14:51;;;;;;;;;;;;;;;18.64;55.85;101174.12;143726;984;48002;-76
2022/04/22 06:17:17;;;;;;;;;;;;;;;18.70;55.73;101175.91;143726;982;47012;-74
2022/04/22 06:19:43;;;;;;;;;;;;;;;18.52;56.24;101178.78;143728;982;47004;-73
2022/04/22 06:22:09;;;;;;;;;;;;;;;18.60;56.36;101164.81;143728;984;46012;-74
2022/04/22 06:24:35;;;;;;;;;;;;;;;18.73;55.97;101148.22;143727;984;47010;-74
2022/04/22 06:27:01;;;;;;;;;;;;;;;18.79;56.13;101130.91;143728;982;48008;-75
2022/04/22 06:29:27;;;;;;;;;;;;;;;18.91;56.57;101139.00;143725;982;47004;-73
2022/04/22 06:31:53;;;;;;;;;;;;;;;18.94;56.37;101141.28;143725;984;46993;-75
2022/04/22 06:34:19;;;;;;;;;;;;;;;18.77;56.78;101126.78;143730;973;47012;-74
2022/04/22 06:36:46;;;;;;;;;;;;;;;18.69;57.49;101121.75;143718;982;49013;-75
2022/04/22 06:39:13;;;;;;;;;;;;;;;18.83;56.92;101133.97;143722;982;48004;-74
2022/04/22 06:47:08;;;;;;;;;;;;;;;18.79;56.25;101149.97;143724;982;47012;-75
2022/04/22 06:49:34;;;;;;;;;;;;;;;18.88;56.66;101152.28;143724;982;47012;-73
2022/04/22 06:52:01;;;;;;;;;;;;;;;18.97;56.30;101160.91;143727;983;47011;-72
2022/04/22 06:54:27;;;;;;;;;;;;;;;19.11;55.66;101156.00;143734;984;47002;-72
2022/04/22 06:56:54;;;;;;;;;;;;;;;19.19;55.80;101169.19;143727;982;47012;-72
2022/04/22 06:59:21;;;;;;;;;;;;;;;19.27;55.46;101170.69;143733;977;47005;-73
2022/04/22 07:01:48;;;;;;;;;;;;;;;19.31;54.94;101169.13;143724;981;47010;-72
2022/04/22 07:04:14;;;;;;;;;;;;;;;19.42;54.95;101179.13;143719;972;48008;-74
2022/04/22 07:06:42;;;;;;;;;;;;;;;19.54;55.27;101177.16;143729;982;47008;-75
2022/04/22 07:09:10;;;;;;;;;;;;;;;19.65;53.70;101178.16;143726;981;47014;-73
2022/04/22 07:11:37;;;;;;;;;;;;;;;19.67;54.37;101188.78;143720;984;48002;-75
2022/04/22 07:14:03;;;;;;;;;;;;;;;19.68;53.97;101191.25;143720;981;50002;-74
2022/04/22 07:16:29;;;;;;;;;;;;;;;19.68;53.64;101176.81;143727;982;48012;-73
2022/04/22 07:18:57;;;;;;;;;;;;;;;19.64;54.07;101181.09;143731;986;47004;-73
2022/04/22 07:21:23;;;;;;;;;;;;;;;19.69;53.46;101175.75;143730;984;47011;-74
2022/04/22 07:23:50;;;;;;;;;;;;;;;19.76;53.46;101173.69;143733;971;47002;-73
2022/04/22 07:26:19;;;;;;;;;;;;;;;19.91;53.21;101159.47;143733;968;47936;-73
2022/04/22 07:28:49;;;;;;;;;;;;;;;20.01;53.10;101161.53;143733;982;47004;-74
2022/04/22 07:31:16;;;;;;;;;;;;;;;20.08;52.73;101164.06;143732;984;46939;-73
2022/04/22 07:33:42;;;;;;;;;;;;;;;20.22;52.59;101153.62;143733;983;47002;-73
2022/04/22 07:36:08;;;;;;;;;;;;;;;20.27;52.34;101142.78;143732;957;47004;-75
2022/04/22 07:38:34;;;;;;;;;;;;;;;20.27;51.63;101157.22;143732;981;47004;-72
2022/04/22 07:41:00;;;;;;;;;;;;;;;20.28;51.48;101161.63;143732;984;47002;-73
2022/04/22 07:48:58;;;;;;;;;;;;;;;20.37;52.11;101150.28;143732;982;47004;-74
2022/04/22 07:51:25;;;;;;;;;;;;;;;20.36;51.73;101143.97;143734;983;46011;-72
2022/04/22 07:53:51;;;;;;;;;;;;;;;20.24;52.15;101151.47;143734;985;47002;-74
2022/04/22 07:56:17;;;;;;;;;;;;;;;20.16;52.80;101180.00;143731;982;47012;-73
2022/04/22 07:58:43;;;;;;;;;;;;;;;20.11;52.96;101182.66;143731;982;47007;-74
2022/04/22 08:01:09;;;;;;;;;;;;;;;20.08;52.98;101183.16;143730;984;46010;-75
2022/04/22 08:03:36;;;;;;;;;;;;;;;20.18;52.64;101166.94;143735;985;47002;-75
2022/04/22 08:06:03;;;;;;;;;;;;;;;20.34;52.38;101153.50;143728;982;47937;-75
2022/04/22 08:08:30;;;;;;;;;;;;;;;20.48;51.31;101126.62;143730;981;47004;-74
2022/04/22 08:10:56;;;;;;;;;;;;;;;20.50;51.40;101138.13;143733;981;46010;-73
2022/04/22 08:13:24;;;;;;;;;;;;;;;20.42;51.67;101133.94;143734;985;47002;-73
2022/04/22 08:15:49;;;;;;;;;;;;;;;20.43;51.33;101136.44;143732;982;46012;-74
2022/04/22 08:18:15;;;;;;;;;;;;;;;20.43;51.42;101125.53;143731;982;47004;-74
2022/04/22 08:20:41;;;;;;;;;;;;;;;20.44;51.11;101101.78;143735;984;47011;-74
2022/04/22 08:23:07;;;;;;;;;;;;;;;20.24;52.50;101078.63;143735;967;47002;-75
2022/04/22 08:25:33;;;;;;;;;;;;;;;20.26;52.13;101060.13;143732;974;47012;-74
2022/04/22 08:27:59;;;;;;;;;;;;;;;20.39;51.66;101069.81;143732;982;47004;-75
2022/04/22 08:30:26;;;;;;;;;;;;;;;20.62;51.05;101095.16;143731;983;47010;-75
2022/04/22 08:32:52;;;;;;;;;;;;;;;20.74;51.27;101109.47;143735;984;47002;-74
2022/04/22 08:35:17;;;;;;;;;;;;;;;20.88;50.52;101103.62;143731;982;47012;-74
2022/04/22 08:37:46;;;;;;;;;;;;;;;21.09;50.34;101079.25;143734;976;47004;-74
2022/04/22 08:40:13;;;;;;;;;;;;;;;21.14;49.38;101096.47;125296;57;10002498;-76
2022/04/22 08:42:39;;;;;;;;;;;;;;;21.25;49.16;101091.94;143720;933;51012;-75
2022/04/22 08:45:06;;;;;;;;;;;;;;;21.42;48.44;101096.41;143723;933;48002;-74
2022/04/22 08:50:19;;;;;;;;;;;;;;;21.62;46.96;101093.84;143718;971;48004;-72
2022/04/22 08:53:05;;;;;;;;;;;;;;;21.67;46.61;101100.44;143725;979;47014;-75
2022/04/22 08:55:32;;;;;;;;;;;;;;;21.51;46.61;101106.59;143717;979;47012;-71
2022/04/22 08:57:59;;;;;;;;;;;;;;;21.46;47.81;101086.62;143729;969;47003;-72
2022/04/22 09:00:27;;;;;;;;;;;;;;;21.55;46.90;101073.28;143721;981;47012;-73
2022/04/22 09:02:56;;;;;;;;;;;;;;;21.32;47.07;101075.31;143725;980;47004;-73
2022/04/22 09:05:22;;;;;;;;;;;;;;;21.28;46.98;101060.53;143725;983;47004;-72
2022/04/22 09:07:49;;;;;;;;;;;;;;;21.34;47.13;101062.22;123511;57;10004659;-72
2022/04/22 09:10:15;;;;;;;;;;;;;;;21.22;47.65;101058.84;143733;930;47002;-72
2022/04/22 09:12:50;;;;;;;;;;;;;;;21.25;47.67;101066.53;143734;931;46011;-70
2022/04/22 09:15:16;;;;;;;;;;;;;;;21.16;48.64;101067.00;143730;986;47012;-69
2022/04/22 09:17:42;;;;;;;;;;;;;;;21.27;48.00;101058.91;143729;978;47004;-70
2022/04/22 09:20:12;;;;;;;;;;;;;;;21.39;47.72;101045.88;143731;986;46011;-70
2022/04/22 09:22:38;;;;;;;;;;;;;;;21.31;47.33;101062.72;143728;981;49013;-71
2022/04/22 09:25:07;;;;;;;;;;;;;;;21.22;47.84;101048.75;143733;986;47004;-70
2022/04/22 09:27:37;;;;;;;;;;;;;;;21.04;48.54;101061.72;143730;974;47004;-69
2022/04/22 09:30:04;;;;;;;;;;;;;;;21.00;48.78;101055.13;143731;985;46010;-72
2022/04/22 09:32:32;;;;;;;;;;;;;;;20.77;48.22;101055.50;143732;982;47002;-71
2022/04/22 09:35:11;;;;;;;;;;;;;;;20.73;48.18;101042.31;143732;985;46012;-69
2022/04/22 09:43:22;;;;;;;;;;;;;;;21.57;48.37;101049.25;143732;982;47002;-71
2022/04/22 09:45:50;;;;;;;;;;;;;;;21.83;47.89;101063.06;143732;985;46012;-70
2022/04/22 09:48:19;;;;;;;;;;;;;;;21.86;47.27;101054.34;143732;978;47004;-69
2022/04/22 09:50:54;;;;;;;;;;;;;;;21.80;45.96;101048.03;143733;982;46011;-70
2022/04/22 09:53:32;;;;;;;;;;;;;;;21.93;45.38;101049.47;143735;982;47010;-69
2022/04/22 09:55:59;;;;;;;;;;;;;;;22.08;45.10;101045.94;143732;986;46012;-70
2022/04/22 09:58:26;;;;;;;;;;;;;;;22.22;44.63;101051.72;143732;977;47004;-69
2022/04/22 10:01:02;;;;;;;;;;;;;;;22.23;45.10;101054.22;143732;985;46010;-68
2022/04/22 10:03:29;;;;;;;;;;;;;;;22.17;45.38;101060.75;143733;982;47003;-69
2022/04/22 10:05:55;;;;;;;;;;;;;;;22.29;46.86;101059.69;143731;984;47013;-70
2022/04/22 10:08:22;;;;;;;;;;;;;;;22.26;45.37;101056.38;143732;978;47012;-68
2022/04/22 10:10:49;;;;;;;;;;;;;;;22.29;45.07;101049.56;143729;986;49002;-70
2022/04/22 10:13:17;;;;;;;;;;;;;;;22.40;45.31;101036.75;143733;981;47002;-70
2022/04/22 10:15:44;;;;;;;;;;;;;;;22.49;45.65;101015.16;143731;986;46012;-69
2022/04/22 10:18:12;;;;;;;;;;;;;;;22.56;44.62;101022.03;143731;978;47004;-70
2022/04/22 10:20:38;;;;;;;;;;;;;;;22.56;44.75;101010.22;143731;973;46027;-68
2022/04/22 10:23:04;;;;;;;;;;;;;;;22.73;44.08;101001.78;143731;985;47002;-66
2022/04/22 10:25:30;;;;;;;;;;;;;;;22.67;43.42;100989.16;143732;986;46012;-68
2022/04/22 10:28:01;;;;;;;;;;;;;;;22.58;43.86;100988.88;143729;978;47014;-66
2022/04/22 10:30:28;;;;;;;;;;;;;;;22.75;43.84;100976.84;143733;986;47010;-65
2022/04/22 10:32:54;;;;;;;;;;;;;;;22.89;42.56;100964.22;143733;980;47002;-67
2022/04/22 10:35:23;;;;;;;;;;;;;;;22.71;41.16;100965.63;143732;974;46026;-67
2022/04/22 10:37:50;;;;;;;;;;;;;;;22.43;41.12;100961.50;143733;977;47002;-65
2022/04/22 10:40:22;;;;;;;;;;;;;;;22.56;41.41;100947.28;143734;986;46008;-67
2022/04/22 10:42:49;;;;;;;;;;;;;;;22.73;40.78;100948.91;143733;982;47000;-67
2022/04/22 10:48:01;;;;;;;;;;;;;;;23.12;41.40;100926.38;143730;969;47002;-76
2022/04/22 10:50:42;;;;;;;;;;;;;;;23.35;41.20;100929.63;143733;984;46009;-77
2022/04/22 10:53:09;;;;;;;;;;;;;;;23.41;42.03;100926.59;143733;986;47000;-77
2022/04/22 10:55:39;;;;;;;;;;;;;;;23.56;42.30;100920.22;143729;982;47010;-76
2022/04/22 10:58:34;;;;;;;;;;;;;;;23.39;42.25;100917.84;143734;981;47003;-80
2022/04/22 11:01:00;;;;;;;;;;;;;;;23.46;41.98;100904.66;143733;984;47008;-78
2022/04/22 11:03:35;;;;;;;;;;;;;;;23.42;43.65;100905.47;143729;985;47008;-78
2022/04/22 11:06:01;;;;;;;;;;;;;;;23.54;42.62;100903.25;143733;972;46027;-77
2022/04/22 11:08:31;;;;;;;;;;;;;;;23.52;43.56;100896.38;143731;982;47002;-79
2022/04/22 11:10:58;;;;;;;;;;;;;;;23.43;41.72;100888.75;143733;984;46016;-76
2022/04/22 11:13:38;;;;;;;;;;;;;;;23.32;40.86;100903.59;143734;974;47000;-76
2022/04/22 11:16:29;;;;;;;;;;;;;;;23.09;42.89;100894.06;143732;982;46010;-76
2022/04/22 11:19:30;;;;;;;;;;;;;;;23.20;43.49;100892.94;143732;982;47002;-77
2022/04/22 11:21:56;;;;;;;;;;;;;;;23.19;43.35;100902.25;143733;984;47008;-78
2022/04/22 11:24:26;;;;;;;;;;;;;;;23.23;42.37;100906.09;143734;978;47000;-81
2022/04/22 11:26:53;;;;;;;;;;;;;;;23.18;42.54;100900.63;143732;982;47010;-79
2022/04/22 11:29:19;;;;;;;;;;;;;;;23.35;41.69;100888.53;143732;981;47002;-77
2022/04/22 11:31:54;;;;;;;;;;;;;;;23.51;41.42;100883.78;143732;984;46008;-79
2022/04/22 11:34:26;;;;;;;;;;;;;;;23.43;41.11;100896.16;143732;986;47000;-79
2022/04/22 11:36:52;;;;;;;;;;;;;;;23.49;41.95;100888.72;143733;981;47010;-78
2022/04/22 11:39:23;;;;;;;;;;;;;;;23.58;41.93;100879.62;143729;982;47002;-70
2022/04/22 11:41:53;;;;;;;;;;;;;;;23.69;42.20;100885.88;143733;984;46009;-69
2022/04/22 11:44:19;;;;;;;;;;;;;;;23.75;41.37;100879.25;143735;972;47000;-74
2022/04/22 11:46:46;;;;;;;;;;;;;;;23.67;42.17;100865.34;143730;982;48002;-72
2022/04/22 11:49:12;;;;;;;;;;;;;;;23.68;42.06;100853.25;143731;982;47002;-74
2022/04/22 11:51:39;;;;;;;;;;;;;;;23.57;42.10;100856.03;143734;983;46010;-74
2022/04/22 11:54:05;;;;;;;;;;;;;;;23.37;42.02;100857.00;143735;986;46012;-72
2022/04/22 11:56:31;;;;;;;;;;;;;;;23.14;43.02;100840.06;143732;982;47012;-75
2022/04/22 11:58:57;;;;;;;;;;;;;;;23.09;41.41;100839.28;143732;981;47004;-75
2022/04/22 12:07:01;;;;;;;;;;;;;;;22.95;42.55;100822.59;143732;981;46012;-74
2022/04/22 12:09:28;;;;;;;;;;;;;;;22.96;43.17;100849.72;143731;982;47004;-73
2022/04/22 12:11:57;;;;;;;;;;;;;;;22.89;43.37;100826.47;143731;984;47004;-74
2022/04/22 12:14:24;;;;;;;;;;;;;;;22.79;42.87;100824.59;143732;986;47002;-76
2022/04/22 12:17:00;;;;;;;;;;;;;;;22.77;43.85;100818.56;143730;982;47012;-70
2022/04/22 12:19:28;;;;;;;;;;;;;;;22.74;44.65;100819.97;143729;982;47005;-72
2022/04/22 12:21:55;;;;;;;;;;;;;;;22.64;45.19;100831.75;143733;984;46010;-70
2022/04/22 12:24:21;;;;;;;;;;;;;;;22.74;44.59;100824.59;143733;986;47002;-70
2022/04/22 12:26:47;;;;;;;;;;;;;;;22.67;44.57;100814.78;143732;982;46937;-70
2022/04/22 12:29:17;;;;;;;;;;;;;;;22.62;44.56;100806.56;143731;982;47004;-70
2022/04/22 12:31:44;;;;;;;;;;;;;;;22.37;44.92;100808.22;143731;983;47002;-70
2022/04/22 12:34:34;;;;;;;;;;;;;;;22.08;45.77;100797.88;143735;984;46013;-70
2022/04/22 12:37:07;;;;;;;;;;;;;;;22.07;46.85;100798.12;143732;982;47012;-70
2022/04/22 12:39:40;;;;;;;;;;;;;;;22.25;47.19;100803.03;143733;982;47004;-70
2022/04/22 12:42:07;;;;;;;;;;;;;;;22.41;46.65;100814.78;143732;984;46935;-70
2022/04/22 12:44:33;;;;;;;;;;;;;;;22.56;45.58;100783.03;143731;985;49010;-70
2022/04/22 12:52:43;;;;;;;;;;;;;;;22.76;46.03;100789.56;143732;975;47010;-70
2022/04/22 12:55:09;;;;;;;;;;;;;;;22.77;46.96;100785.72;143735;986;47002;-69
2022/04/22 12:57:41;;;;;;;;;;;;;;;22.65;45.17;100780.53;143732;981;47012;-69
2022/04/22 13:00:15;;;;;;;;;;;;;;;22.68;45.27;100777.25;143731;982;47004;-71
2022/04/22 13:02:40;;;;;;;;;;;;;;;22.58;45.20;100786.31;143732;984;46010;-71
2022/04/22 13:05:07;;;;;;;;;;;;;;;22.68;45.79;100791.75;143734;976;47002;-70
2022/04/22 13:07:42;;;;;;;;;;;;;;;22.69;43.85;100811.75;143732;982;47012;-71
2022/04/22 13:10:09;;;;;;;;;;;;;;;22.48;44.54;100805.50;143732;982;47005;-72
2022/04/22 13:12:39;;;;;;;;;;;;;;;22.39;44.41;100769.66;143733;983;47011;-70
2022/04/22 13:15:06;;;;;;;;;;;;;;;22.51;44.57;100753.78;143735;986;47002;-71
2022/04/22 13:17:32;;;;;;;;;;;;;;;22.61;44.14;100754.81;143732;982;47012;-71
2022/04/22 13:19:58;;;;;;;;;;;;;;;22.67;44.39;100745.50;143732;981;47005;-70
2022/04/22 13:22:24;;;;;;;;;;;;;;;22.84;43.64;100759.66;143732;984;46010;-70
2022/04/22 13:24:50;;;;;;;;;;;;;;;22.91;43.43;100764.84;143731;985;47002;-71
2022/04/22 13:27:15;;;;;;;;;;;;;;;22.81;43.10;100759.41;143732;981;46017;-69
2022/04/22 13:29:41;;;;;;;;;;;;;;;22.65;43.70;100751.28;143731;982;47004;-69
2022/04/22 13:32:08;;;;;;;;;;;;;;;22.45;44.23;100729.44;143731;984;47935;-69
2022/04/22 13:34:34;;;;;;;;;;;;;;;22.39;44.42;100714.94;143734;985;47002;-70
2022/04/22 13:36:59;;;;;;;;;;;;;;;22.35;43.36;100716.56;143732;970;46030;-69